Main page
METAR-TAF:

METAR-TAF

Airports :

Ouagadougou, Burkina Faso

Ouagadougou Airport

latitude: 12-21N, longitude: 001-31W, elevation: 316 m

Current weather observation

The report was made 56 minutes ago, at 08:00 UTC
Wind 2 kt from the South/Southwest
Temperature 30°C
Humidity 55%
Pressure 1013 hPa
Visibility 10 km or more
no clouds below 1500 m and no cumulonimbus

METAR: DFFD 300800Z 20002KT CAVOK 30/20 Q1013 NOSIG

Time: 08:56 (08:56 UTC)

Forecast

The report was made 3 hours and 56 minutes ago, at 05:00 UTC
Forecast valid from 30 at 06 UTC to 01 at 12 UTC
Wind 8 kt from the West/Southwest
Visibility 10 km or more
Few clouds at a height of 2600 ft
Probability 30% :
Temporary
from 30 at 16 UTC to 30 at 22 UTC
Few clouds at a height of 2600 ft
Few clouds at a height of 4000 ft, Cumulonimbus.
thunderstorm

TAF: DFFD 300500Z 3006/0112 24008KT 9999 FEW026 PROB30 TEMPO 3016/3022 TS FEW026 FEW040CB

Weather observations and forecasts of more than 4000 airports (METAR and TAF reports).

The available stations are represented by yellow and red dots on the map.

Hover mouse over dot to see the name of the station.

Then click to see weather observations and forecasts.

To change the map : click on the green buttons with a black cross to zoom in, on the green button with a dash to zoom out, or on the green arrows for adjacent maps.


METAR-TAF: